Toowoomba, Queensland

7:22 PM AEST on August 30, 2016 (GMT +1000)
Cranley | | Change Station

Elev 2087 ft 27.53 °S, 151.93 °E | Updated 7 seconds ago

Clear
Clear
55.9 °F
Feels Like 55.9 °F
N
6.3
Wind Variable Wind from NNE
Gusts 8.9 mph

Today
High -- | Low -- °F
--% Chance of Precip.
Yesterday
High -- | Low -- °F
Precip. -- in
Pressure 30.30 in
Visibility -9999.0 miles
Clouds
Dew Point 46 °F
Humidity 68%
Rainfall 0.00 in
Snow Depth Not available.
6:08 AM 5:38 PM
Waning Crescent, 4% visible
METAR YBOK 300900Z 07010KT CAVOK 16/10 Q1026 NOSIG
Pressure 30.30 in
Visibility -9999.0 miles
Clouds
Dew Point 46 °F
Humidity 68%
Rainfall 0.00 in
Snow Depth Not available.
6:08 AM 5:38 PM
Waning Crescent, 4% visible
METAR YBOK 300900Z 07010KT CAVOK 16/10 Q1026 NOSIG

10-Day Weather Forecast

Almanac

Astronomy

Aug. 30, 2016 Rise Set
Actual Time
Civil Twilight
Nautical Twilight
Astronomical Twilight
Moon
Length of Visible Light
Length of Day
Tomorrow will be .
, % of the Moon is Illuminated

Today's Extremes

Country Highs Country Lows

Community

WunderPhotos

Upload Photos

1,935,795 photos uploaded!

WunderBlog® & News

Nearby

Air Quality

  Air Quality AQ Index Pollutant
Not available.

Snow Depth

Station Depth Elevation

Earthquake Activity

City Distance Mag. Time & Date
Minimum magnitude displayed is 2.5.

Coastal Water Temperatures

Place Temperature

Stations

Nearby Weather Stations

Station Location Temp. Windchill Dew Point Humidity Wind Precip. Elev Updated Type